Sayward, Canada
Current Conditions -  °F | °C
As of 7:14 AM on Thursday 18 Dec 2014 (Local Time) from CYBL Reporting Station
Light Rain Light Rain  
Wind Chill: 37°   Ceiling: 800
Heat Index: 41°   Visibility: 10mi
Dew Point: 39°   Wind: 6mph
Humidity: 93%   Direction: 130°SE
Pressure: 29.83"   Gusts: NA
Location:  50.35°N, 125.92°W
Report Text: CYBL 181514Z 13005KT 10SM -RA OVC008 05/04 A2983 RMK ST8 SLP105
Loading
Personal Weather Stations






























Interactive Weather Map New forecast layout! Learn more

10-Day Weather Forecast

Advertisements
Track Severe Weather on mobile